Ana Sayfa
METAR-TAF:

METAR-TAF

Havaalanları :

Koltsovo Havalimanı

Yekaterinburg, Rusya

Enlem: 56-50N, Boylam: 060-38E, yükseklik: 237 m

Güncel hava durumu gözlemi

Rapor saat 04:30 UTC de 15 dakika önce yapıldı.
Rüzgar doğu/kuzeydoğudan 10 kt
Sıcaklık 17°C
Nem 48%
Basınç 1022 hPa
Görüş mesafesi 10 km veya daha fazla
3300 ft yükseklikte az bulutlu

METAR: USSS 220430Z 06005MPS 9999 FEW033 17/06 Q1022 R08R/010060 R08L/010060 NOSIG RMK QFE746/0995

Saat: 09:45 (04:45 UTC)

Tahmin

Rapor saat 01:58 UTC de 2 saat ve 47 dakika önce yapıldı.
Ayın 22'si saat 03 UTC'den ayın 23'si saat 03 UTC'ye kadar geçerli Tahmin
Rüzgar doğu/kuzeydoğudan 12 kt ve 23 kt'a kadar ani rüzgarlar
Görüş mesafesi 10 km veya daha fazla
3000 ft yükseklikte parçalı bulutlu
Dönüşüyor
ayın 22'si saat 16 UTC'den ayın 22'si saat 18 UTC'ye kadar
Rüzgar doğu/kuzeydoğudan 8 kt ve 17 kt'a kadar ani rüzgarlar

TAF: USSS 220158Z 2203/2303 07006G12MPS 9999 SCT030 BECMG 2216/2218 06004G09MPS

4.000'den fazla havaalanı için hava durumu gözlemleri ve tahminleri (METAR ve TAF raporları).

Kullanılabilir istasyonlar harita üzerinde sarı ve kırmızı noktalarla gösterilir.

İstasyonun adını görmek için fareyi noktanın üzerinde gezdirin.

Sonrasında hava gözlem ve tahminlerini görmek için tıklayın.

Haritayı değiştirmek için: yaklaştırmak için siyah artı işaretli yeşil düğmeye ve uzaklaştırmak için de eksi işaretli düğmeye hızla tıklayın; bitişik haritalar için yeşil okları kullanın.


METAR-TAF: